Nearby METAR Reports

 

KOXC - Oxford/Waterbury, Connecticut, USA
Distance from station: SE 8mi, 12km
Updated: Sun, 27-Sep-2020 6:51pm EDT
Overcast
Overcast
 Wind from SSE
Wind: SSE 7 mph , 11 km/h
Temperature: 72°F , 22°C
Dew Point: 70°F , 21°C
Humidity: 94%
Barometer: 29.98 inHg , 1015.2 hPa
Clouds: Overcast
Visibility: 10 miles , 16 km
Cloud details: Overcast 800 ft
2020/09/27 22:51 KOXC 272251Z 15006KT 10SM OVC008 22/21 A2998 RMK AO2 SLP159 T02170206
KDXR - Danbury, Connecticut, USA
Distance from station: SW 19mi, 30km
Updated: Sun, 27-Sep-2020 6:53pm EDT
Overcast
Overcast
 Wind from SSE
Wind: SSE 5 mph , 7 km/h
Temperature: 72°F , 22°C
Dew Point: 66°F , 19°C
Humidity: 83%
Barometer: 29.97 inHg , 1014.9 hPa
Clouds: Overcast
Visibility: 10 miles , 16 km
Cloud details: Mostly cloudy 1400 ft
Overcast 2100 ft
2020/09/27 22:53 KDXR 272253Z 15004KT 10SM BKN014 OVC021 22/19 A2997 RMK AO2 SLP144 T02220194
 
KMMK - Meriden, Connecticut, USA
Distance from station: E 20mi, 33km
Updated: Sun, 27-Sep-2020 7:10pm EDT
Overcast
Overcast
 Wind from SSE
Wind: SSE 6 mph , 9 km/h
Temperature: 73°F , 23°C
Dew Point: 66°F , 19°C
Humidity: 78%
Barometer: 29.96 inHg , 1014.6 hPa
Clouds: Overcast
Visibility: 10 miles , 16 km
Cloud details: Few Clouds 1300 ft
Partly cloudy 3200 ft
Overcast 4900 ft
2020/09/27 23:10 KMMK 272310Z AUTO 16005KT 10SM FEW013 SCT032 OVC049 23/19 A2996 RMK AO2 T02280194 TSNO
KBDR - Bridgeport, Connecticut, USA
Distance from station: S 27mi, 44km
Updated: Sun, 27-Sep-2020 6:52pm EDT
Partly cloudy
Partly cloudy
 Wind from SE
Wind: SE 8 mph , 13 km/h
Temperature: 73°F , 23°C
Dew Point: 70°F , 21°C
Humidity: 89%
Barometer: 29.94 inHg , 1013.9 hPa
Clouds: Partly cloudy
Visibility: 10 miles , 16 km
Cloud details: Few Clouds 4000 ft
Partly cloudy 4900 ft
2020/09/27 22:52 KBDR 272252Z 13007KT 10SM FEW040 SCT049 23/21 A2994 RMK AO2 SLP139 T02280206
 
KHVN - New Haven/Tweed, Connecticut, USA
Distance from station: SE 27mi, 44km
Updated: Sun, 27-Sep-2020 6:53pm EDT
Overcast
Overcast
 Wind from SE
Wind: SE 5 mph , 7 km/h
Temperature: 73°F , 23°C
Dew Point: 70°F , 21°C
Humidity: 89%
Barometer: 29.95 inHg , 1014.2 hPa
Clouds: Overcast
Visibility: 9 miles , 14 km
Cloud details: Mostly cloudy 4000 ft
Overcast 5000 ft
2020/09/27 22:53 KHVN 272253Z 13004KT 9SM BKN040 OVC050 23/21 A2995 RMK AO2 SLP142 T02280211
KHFD - Hartford/Brainar, Connecticut, USA
Distance from station: ENE 32mi, 52km
Updated: Sun, 27-Sep-2020 6:53pm EDT
Mostly cloudy
Mostly cloudy
 Wind from S
Wind: S 12 mph , 19 km/h
Temperature: 75°F , 24°C
Dew Point: 68°F , 20°C
Humidity: 78%
Barometer: 29.94 inHg , 1013.9 hPa
Clouds: Mostly cloudy
Visibility: 10 miles , 16 km
Cloud details: Partly cloudy 2200 ft
Partly cloudy 3000 ft
Mostly cloudy 5500 ft
2020/09/27 22:53 KHFD 272253Z 17010KT 10SM SCT022 SCT030 BKN055 24/20 A2994 RMK AO2 SLP139 T02390200
 
KPOU - Poughkeepsie, New York, USA
Distance from station: W 35mi, 56km
Updated: Sun, 27-Sep-2020 6:53pm EDT
Overcast
Overcast
 Wind from SSE
Wind: SSE 6 mph , 9 km/h
Temperature: 77°F , 25°C
Dew Point: 64°F , 18°C
Humidity: 65%
Barometer: 29.91 inHg , 1012.9 hPa
Clouds: Overcast
Visibility: 10 miles , 16 km
Cloud details: Overcast 4200 ft
2020/09/27 22:53 KPOU 272253Z AUTO 15005KT 10SM OVC042 25/18 A2991 RMK AO2 SLP126 T02500183
KBDL - Windsor Locks, Connecticut, USA
Distance from station: NE 38mi, 62km
Updated: Sun, 27-Sep-2020 7:37pm EDT
Overcast
Overcast
 Wind from S
Wind: S 15 mph , 24 km/h
Temperature: 73°F , 23°C
Dew Point: 66°F , 19°C
Humidity: 78%
Barometer: 29.95 inHg , 1014.2 hPa
Clouds: Overcast
Visibility: 10 miles , 16 km
Cloud details: Few Clouds 2100 ft
Partly cloudy 2600 ft
Overcast 4900 ft
2020/09/27 23:37 KBDL 272337Z 17013KT 10SM FEW021 SCT026 OVC049 23/19 A2995 RMK AO2 T02280194 $
 
KSNC - Chester, Connecticut, USA
Distance from station: ESE 39mi, 63km
Updated: Sun, 27-Sep-2020 7:15pm EDT
Mostly cloudy
Mostly cloudy
 Wind from SE
Wind: SE 3 mph , 6 km/h
Temperature: 70°F , 21°C
Dew Point: 70°F , 21°C
Humidity: 100%
Barometer: 29.98 inHg , 1015.2 hPa
Clouds: Mostly cloudy
Visibility: 7 miles , 11 km
Cloud details: Mostly cloudy 300 ft
2020/09/27 23:15 KSNC 272315Z AUTO 13003KT 7SM BKN003 21/21 A2998 RMK AO2
KHPN - White Plains, New York, USA
Distance from station: SW 42mi, 67km
Updated: Sun, 27-Sep-2020 6:56pm EDT
Light rain, Mostly cloudy
Light rain, Mostly cloudy
 Wind from E
Wind: E 3 mph , 6 km/h
Temperature: 72°F , 22°C
Dew Point: 66°F , 19°C
Humidity: 83%
Barometer: 29.94 inHg , 1013.9 hPa
Summary: Light rain
Clouds: Mostly cloudy
Visibility: 10 miles , 16 km
Cloud details: Mostly cloudy 1400 ft
Mostly cloudy 2700 ft
2020/09/27 22:56 KHPN 272256Z 10003KT 10SM -RA BKN014 BKN027 22/19 A2994 RMK AO2 RAB11E29B52 SLP136 P0000 T02170194
 
KSWF - Newburgh/Stewart, New York, USA
Distance from station: W 45mi, 72km
Updated: Sun, 27-Sep-2020 7:45pm EDT
Overcast
Overcast
 Wind from varies
Wind: varies 5 mph , 7 km/h
Temperature: 75°F , 24°C
Dew Point: 66°F , 19°C
Humidity: 74%
Barometer: 29.94 inHg , 1013.9 hPa
Clouds: Overcast
Visibility: 10 miles , 16 km
Cloud details: Overcast 2500 ft
2020/09/27 23:45 KSWF 272345Z VRB04KT 10SM OVC025 24/19 A2994
KBAF - Westfield, Massachusetts, USA
Distance from station: NNE 50mi, 80km
Updated: Sun, 27-Sep-2020 6:53pm EDT
Overcast
Overcast
 Wind from SSE
Wind: SSE 7 mph , 11 km/h
Temperature: 75°F , 24°C
Dew Point: 66°F , 19°C
Humidity: 74%
Barometer: 29.94 inHg , 1013.9 hPa
Clouds: Overcast
Visibility: 10 miles , 16 km
Cloud details: Partly cloudy 2900 ft
Overcast 3900 ft
2020/09/27 22:53 KBAF 272253Z 16006KT 10SM SCT029 OVC039 24/19 A2994 RMK AO2 SLP136 T02440189